Time;durP1;ratioP1;P1;durP2;ratioP2;P2;SDS_P1;SDS_P2;PMS_P1;PMS_P2;Temp;Humidity;BMP_temperature;BMP_pressure;BME280_temperature;BME280_humidity;BME280_pressure;Samples;Min_cycle;Max_cycle;Signal;HPM_P1;HPM_P2
2023/08/16 00:04:03;;;;;;;7.38;5.90;;;;;;;19.44;74.72;100735.44;10128219;29;21302;-77
2023/08/16 00:09:07;;;;;;;10.10;6.70;;;;;;;19.14;76.15;100734.31;10132997;29;20056;-77
2023/08/16 00:14:13;;;;;;;13.57;5.88;;;;;;;19.10;76.10;100743.81;10128987;28;20536;-76
2023/08/16 00:19:16;;;;;;;10.40;7.00;;;;;;;19.11;76.35;100744.66;10134726;29;20063;-77
2023/08/16 00:24:18;;;;;;;8.48;6.53;;;;;;;18.89;77.28;100735.31;10132226;29;20071;-77
2023/08/16 00:29:23;;;;;;;12.10;6.45;;;;;;;19.00;77.02;100741.25;10129674;29;20071;-77
2023/08/16 00:34:28;;;;;;;13.20;7.70;;;;;;;19.17;76.67;100741.25;10129555;29;20052;-76
2023/08/16 00:39:30;;;;;;;11.52;7.22;;;;;;;19.13;76.15;100738.03;10131166;28;20060;-77
2023/08/16 00:44:35;;;;;;;9.25;6.85;;;;;;;19.09;76.08;100743.97;10127963;28;20048;-77
2023/08/16 00:49:41;;;;;;;13.00;6.63;;;;;;;19.10;75.87;100740.25;10128390;29;20508;-77
2023/08/16 00:54:44;;;;;;;8.65;6.15;;;;;;;19.06;75.70;100738.88;10128888;29;20164;-77
2023/08/16 00:59:48;;;;;;;7.65;6.00;;;;;;;19.01;75.60;100736.69;10131670;29;20783;-77
2023/08/16 01:04:51;;;;;;;13.43;6.25;;;;;;;18.95;75.54;100726.47;10129472;29;20587;-77
2023/08/16 01:09:54;;;;;;;10.02;6.40;;;;;;;18.85;76.00;100723.09;10126668;28;20052;-76
2023/08/16 01:15:08;;;;;;;10.95;6.95;;;;;;;18.86;76.27;100722.91;10122874;29;20059;-77
2023/08/16 01:20:13;;;;;;;8.55;6.60;;;;;;;18.78;76.45;100721.03;10123079;29;20184;-77
2023/08/16 01:25:26;;;;;;;8.00;7.20;;;;;;;18.82;76.43;100718.00;10125453;29;20053;-77
2023/08/16 01:30:31;;;;;;;18.20;8.10;;;;;;;18.79;76.74;100732.78;10128879;29;20401;-77
2023/08/16 01:35:35;;;;;;;9.73;6.03;;;;;;;18.77;76.26;100729.34;10124579;28;20047;-77
2023/08/16 01:40:40;;;;;;;9.25;6.60;;;;;;;18.80;77.03;100737.19;10120834;29;20055;-77
2023/08/16 01:45:46;;;;;;;10.60;6.97;;;;;;;18.86;76.53;100744.69;10131261;29;20063;-76
2023/08/16 01:50:49;;;;;;;9.02;6.25;;;;;;;18.72;75.96;100746.16;10131056;29;20044;-76
2023/08/16 01:55:52;;;;;;;11.57;7.25;;;;;;;18.67;76.10;100736.81;10130542;29;20504;-77
2023/08/16 02:00:56;;;;;;;11.75;7.22;;;;;;;18.54;76.77;100738.19;10119391;28;20048;-77
2023/08/16 02:05:59;;;;;;;8.25;6.72;;;;;;;18.56;76.95;100736.13;10126596;28;20049;-77
2023/08/16 02:11:02;;;;;;;9.85;7.00;;;;;;;18.53;76.74;100735.63;10118477;29;20052;-77
2023/08/16 02:16:07;;;;;;;9.80;7.00;;;;;;;18.54;77.14;100731.84;10121320;29;20050;-77
2023/08/16 02:21:11;;;;;;;11.60;7.10;;;;;;;18.47;77.37;100736.28;10122609;29;20056;-77
2023/08/16 02:26:14;;;;;;;10.98;7.60;;;;;;;18.47;77.08;100737.13;10127553;28;20089;-77
2023/08/16 02:31:20;;;;;;;9.57;6.90;;;;;;;18.49;76.90;100753.31;10124214;28;20099;-77
2023/08/16 02:36:23;;;;;;;14.73;8.60;;;;;;;18.12;77.76;100747.25;10118628;29;20193;-77
2023/08/16 02:41:26;;;;;;;12.95;7.53;;;;;;;18.01;78.38;100746.69;10117632;29;20108;-77
2023/08/16 02:46:31;;;;;;;11.25;6.88;;;;;;;18.14;78.31;100755.25;10119212;29;20071;-77
2023/08/16 02:51:33;;;;;;;10.50;8.38;;;;;;;18.09;78.04;100746.72;10122110;29;20080;-76
2023/08/16 02:56:36;;;;;;;13.20;8.75;;;;;;;18.07;78.35;100749.63;10126079;28;20051;-77
2023/08/16 03:01:41;;;;;;;11.90;8.68;;;;;;;18.14;78.19;100752.53;10115133;29;20063;-77
2023/08/16 03:06:44;;;;;;;14.20;9.45;;;;;;;18.09;78.17;100733.13;10120333;29;20056;-77
2023/08/16 03:11:49;;;;;;;15.60;10.60;;;;;;;18.01;78.38;100733.94;10114036;29;20082;-77
2023/08/16 03:16:53;;;;;;;12.18;9.48;;;;;;;17.98;78.48;100741.59;10114305;29;20059;-77
2023/08/16 03:21:56;;;;;;;11.82;9.43;;;;;;;17.89;78.53;100746.97;10114508;28;20801;-77
2023/08/16 03:27:00;;;;;;;10.77;7.85;;;;;;;17.95;78.30;100766.34;10111158;29;20052;-76
2023/08/16 03:32:06;;;;;;;12.00;8.20;;;;;;;17.96;78.19;100762.59;10113166;29;20496;-76
2023/08/16 03:37:10;;;;;;;13.93;8.60;;;;;;;17.90;78.60;100767.69;10125220;29;20048;-76
2023/08/16 03:42:12;;;;;;;12.43;8.38;;;;;;;17.87;78.68;100780.75;10119257;29;20567;-76
2023/08/16 03:47:17;;;;;;;10.63;9.43;;;;;;;17.92;78.51;100784.69;10133632;28;20083;-76
2023/08/16 03:52:20;;;;;;;14.57;9.98;;;;;;;17.99;78.38;100781.34;10128311;29;20060;-76
2023/08/16 03:57:23;;;;;;;12.63;9.77;;;;;;;18.01;78.36;100787.47;10118992;29;21631;-77
2023/08/16 04:02:27;;;;;;;13.88;9.82;;;;;;;;;;10128307;29;20527;-77
2023/08/16 04:07:30;;;;;;;14.90;9.80;;;;;;;18.18;78.25;100788.38;10152824;29;20441;-78
2023/08/16 04:12:36;;;;;;;16.02;11.35;;;;;;;18.14;78.23;100793.31;10142551;29;20059;-75
2023/08/16 04:17:40;;;;;;;14.07;10.25;;;;;;;18.20;78.57;100789.91;10146131;28;20063;-77
2023/08/16 04:22:44;;;;;;;18.38;10.23;;;;;;;18.30;78.48;100793.38;10136199;29;20052;-76
2023/08/16 04:27:47;;;;;;;17.63;9.57;;;;;;;18.31;78.31;100805.94;10134266;29;20056;-77
2023/08/16 04:32:51;;;;;;;18.73;11.98;;;;;;;18.32;78.49;100810.38;10135067;29;20055;-76
2023/08/16 04:37:54;;;;;;;18.73;11.73;;;;;;;18.09;78.57;100823.69;10131400;29;20134;-76
2023/08/16 04:42:58;;;;;;;18.30;11.93;;;;;;;17.33;82.48;100834.38;10129618;28;20059;-76
2023/08/16 04:48:05;;;;;;;21.30;13.68;;;;;;;17.69;81.80;100846.03;10118928;29;20051;-76
2023/08/16 04:53:08;;;;;;;25.67;15.27;;;;;;;18.02;80.97;100836.25;10123887;29;20052;-76
2023/08/16 04:58:11;;;;;;;21.23;15.75;;;;;;;18.18;80.41;100846.31;10123193;29;20064;-76
2023/08/16 05:03:23;;;;;;;22.00;16.17;;;;;;;18.31;79.99;100848.59;10123246;29;20083;-76
2023/08/16 05:08:26;;;;;;;19.80;15.35;;;;;;;18.28;79.79;100854.38;10123724;29;20690;-77
2023/08/16 05:13:29;;;;;;;23.90;17.00;;;;;;;18.45;79.68;100852.56;10117549;28;20416;-76
2023/08/16 05:18:33;;;;;;;26.65;18.10;;;;;;;18.48;79.19;100863.94;10125512;28;20068;-76
2023/08/16 05:23:36;;;;;;;21.73;15.27;;;;;;;18.51;78.77;100862.78;10130467;29;20052;-77
2023/08/16 05:28:39;;;;;;;18.60;14.10;;;;;;;18.52;79.01;100861.78;10117798;29;20083;-76
2023/08/16 05:33:43;;;;;;;17.05;11.20;;;;;;;18.67;78.45;100876.44;10118812;29;20072;-76
2023/08/16 05:38:46;;;;;;;13.52;9.63;;;;;;;18.79;78.20;100874.31;10123330;28;20132;-76
2023/08/16 05:43:49;;;;;;;8.82;6.43;;;;;;;19.05;77.26;100876.88;10127441;28;20052;-76
2023/08/16 05:48:53;;;;;;;12.45;7.32;;;;;;;19.28;75.99;100876.22;10121958;29;20044;-77
2023/08/16 05:53:56;;;;;;;8.95;6.20;;;;;;;19.50;74.83;100885.59;10119485;29;20055;-76
2023/08/16 05:58:59;;;;;;;10.05;7.53;;;;;;;19.71;73.43;100891.41;10121841;29;20055;-77
2023/08/16 06:04:03;;;;;;;12.98;6.70;;;;;;;19.77;72.45;100893.44;10130311;28;20123;-77
2023/08/16 06:09:06;;;;;;;15.93;7.40;;;;;;;19.90;71.63;100882.00;10121642;28;20051;-77
2023/08/16 06:14:09;;;;;;;10.50;5.57;;;;;;;19.89;70.00;100881.16;10123607;29;20061;-77
2023/08/16 06:19:15;;;;;;;8.23;4.43;;;;;;;19.95;69.87;100878.75;10118923;29;20051;-77
2023/08/16 06:24:18;;;;;;;7.35;4.78;;;;;;;19.98;69.53;100887.44;10122019;29;20051;-77
2023/08/16 06:29:21;;;;;;;12.07;4.78;;;;;;;19.81;69.04;100880.31;10118281;28;20059;-77
2023/08/16 06:34:26;;;;;;;7.55;4.60;;;;;;;19.89;68.18;100888.50;10126970;28;20053;-77
2023/08/16 06:39:29;;;;;;;7.63;3.83;;;;;;;19.96;68.24;100891.34;10118576;28;20052;-77
2023/08/16 06:44:32;;;;;;;7.32;4.18;;;;;;;19.93;68.12;100892.56;10113245;29;20064;-77
2023/08/16 06:49:36;;;;;;;5.15;3.78;;;;;;;20.16;66.48;100889.97;10122893;29;20056;-77
2023/08/16 06:54:41;;;;;;;8.05;3.00;;;;;;;20.26;66.37;100898.78;10118612;29;20432;-77
2023/08/16 06:59:45;;;;;;;5.60;2.90;;;;;;;20.50;64.71;100889.69;10124770;28;20094;-77
2023/08/16 07:04:50;;;;;;;6.60;3.65;;;;;;;20.71;64.49;100885.50;10124132;29;20048;-77
2023/08/16 07:09:53;;;;;;;4.95;2.65;;;;;;;21.05;62.97;100885.13;10123316;29;21164;-77
2023/08/16 07:14:55;;;;;;;9.82;3.20;;;;;;;21.34;62.26;100895.34;10115926;29;20092;-77
2023/08/16 07:20:00;;;;;;;6.10;2.63;;;;;;;21.51;60.76;100908.88;10125146;29;20447;-76
2023/08/16 07:25:03;;;;;;;5.47;2.50;;;;;;;21.70;60.77;100924.78;10125128;28;20058;-77
2023/08/16 07:30:07;;;;;;;5.32;2.55;;;;;;;22.05;60.41;100928.75;10135105;28;20072;-75
2023/08/16 07:35:12;;;;;;;5.05;1.92;;;;;;;23.09;58.21;100912.25;10126170;29;20415;-77
2023/08/16 07:40:15;;;;;;;6.07;2.20;;;;;;;23.23;56.68;100921.47;10118968;29;20059;-78
2023/08/16 07:45:18;;;;;;;4.68;1.77;;;;;;;23.32;55.94;100912.06;10125698;28;20164;-77
2023/08/16 07:50:23;;;;;;;7.13;2.50;;;;;;;23.11;55.65;100920.28;10129780;28;21166;-77
2023/08/16 07:55:33;;;;;;;4.50;2.15;;;;;;;23.12;56.25;100914.63;10133898;29;22022;-77
2023/08/16 08:00:36;;;;;;;8.55;2.50;;;;;;;23.69;55.86;100912.81;10130358;29;20079;-77
2023/08/16 08:05:40;;;;;;;4.03;2.10;;;;;;;23.89;54.13;100915.78;10125321;29;20055;-76
2023/08/16 08:10:44;;;;;;;3.58;2.28;;;;;;;23.65;54.83;100917.84;10131657;29;20067;-76
2023/08/16 08:15:47;;;;;;;6.15;2.33;;;;;;;23.75;54.75;100911.16;10134554;29;20488;-77
2023/08/16 08:20:51;;;;;;;6.20;2.10;;;;;;;24.11;54.11;100905.56;10130174;28;20136;-76
2023/08/16 08:25:54;;;;;;;8.13;1.95;;;;;;;23.89;54.94;100918.50;10140535;28;20051;-77
2023/08/16 08:30:57;;;;;;;3.60;2.05;;;;;;;24.57;53.28;100913.22;10127940;29;20056;-75
2023/08/16 08:36:03;;;;;;;4.93;1.95;;;;;;;25.02;52.08;100916.38;10119716;29;20048;-75
2023/08/16 08:41:06;;;;;;;5.57;2.33;;;;;;;25.55;50.26;100922.00;10130965;28;20056;-75
2023/08/16 08:46:09;;;;;;;8.43;1.98;;;;;;;25.43;50.63;100934.69;10129895;28;20091;-75
2023/08/16 08:51:14;;;;;;;8.93;1.95;;;;;;;25.56;50.97;100931.94;10124990;28;20182;-75
2023/08/16 08:56:18;;;;;;;3.42;2.15;;;;;;;25.86;49.78;100931.53;10115686;29;20086;-74
2023/08/16 09:01:23;;;;;;;2.17;1.70;;;;;;;26.35;48.79;100940.41;10120818;29;20072;-75
2023/08/16 09:06:28;;;;;;;5.47;2.08;;;;;;;26.52;48.21;100920.44;10130245;29;20056;-75
2023/08/16 09:11:32;;;;;;;4.15;1.88;;;;;;;26.70;48.07;100933.50;10130316;28;20067;-74
2023/08/16 09:16:35;;;;;;;5.10;2.30;;;;;;;26.90;47.93;100935.34;10132747;28;20720;-75
2023/08/16 09:21:42;;;;;;;6.53;2.10;;;;;;;27.55;47.17;100935.19;10120279;29;20055;-75
2023/08/16 09:26:46;;;;;;;3.33;1.67;;;;;;;27.53;46.55;100942.84;10117749;29;20059;-75
2023/08/16 09:31:49;;;;;;;8.02;1.92;;;;;;;26.45;48.70;100938.06;10136432;29;20092;-73
2023/08/16 09:36:53;;;;;;;5.35;2.08;;;;;;;26.01;49.27;100942.34;10130313;29;20811;-74
2023/08/16 09:41:56;;;;;;;4.40;1.80;;;;;;;25.76;49.78;100939.41;10120766;28;20049;-73
2023/08/16 09:46:59;;;;;;;3.70;2.50;;;;;;;26.25;49.72;100932.59;10121698;28;20071;-75
2023/08/16 09:52:10;;;;;;;6.38;2.00;;;;;;;27.63;46.46;100921.13;10120271;29;20059;-75
2023/08/16 09:57:17;;;;;;;5.90;2.20;;;;;;;28.04;45.78;100934.38;10122161;29;20532;-74
2023/08/16 10:02:24;;;;;;;4.78;2.03;;;;;;;27.39;47.10;100947.59;10122489;29;20720;-75
2023/08/16 10:07:31;;;;;;;6.03;2.17;;;;;;;26.64;48.31;100945.41;10125753;28;20068;-73
2023/08/16 10:12:35;;;;;;;5.50;2.53;;;;;;;26.65;48.76;100932.47;10119106;28;21008;-75
2023/08/16 10:17:39;;;;;;;7.00;2.33;;;;;;;26.99;48.38;100941.44;10125779;29;20139;-74
2023/08/16 10:22:48;;;;;;;3.67;2.10;;;;;;;26.23;48.93;100953.97;10126258;29;20102;-73
2023/08/16 10:27:54;;;;;;;2.90;1.92;;;;;;;26.13;50.09;100961.78;10127930;29;20075;-75
2023/08/16 10:33:05;;;;;;;5.22;2.35;;;;;;;25.44;50.98;100947.38;10123517;28;20054;-75
2023/08/16 10:38:09;;;;;;;2.97;2.47;;;;;;;25.19;51.90;100944.34;10125029;28;20476;-75
2023/08/16 10:43:12;;;;;;;5.05;2.08;;;;;;;25.10;51.33;100949.19;10115443;29;20048;-74
2023/08/16 10:48:18;;;;;;;4.40;2.30;;;;;;;25.01;51.75;100953.13;10117758;29;20541;-74
2023/08/16 10:53:24;;;;;;;5.28;2.42;;;;;;;25.25;51.40;100954.50;10122982;29;20056;-76
2023/08/16 10:58:28;;;;;;;4.18;2.20;;;;;;;26.02;49.86;100963.28;10117908;29;20159;-75
2023/08/16 11:03:32;;;;;;;6.72;2.20;;;;;;;27.46;47.21;100945.66;10121041;28;20044;-75
2023/08/16 11:08:40;;;;;;;4.18;2.80;;;;;;;28.40;45.58;100946.53;10120560;28;20063;-76
2023/08/16 11:13:43;;;;;;;6.75;3.10;;;;;;;29.03;43.12;100933.47;10121510;29;20053;-75
2023/08/16 11:18:46;;;;;;;7.75;3.55;;;;;;;30.27;42.10;100946.66;10123930;29;20063;-76
2023/08/16 11:23:54;;;;;;;4.00;2.72;;;;;;;29.76;43.13;100946.25;10119001;29;20048;-76
2023/08/16 11:28:57;;;;;;;8.30;3.55;;;;;;;28.27;44.95;100957.72;10117959;28;20055;-75
2023/08/16 11:34:00;;;;;;;4.70;3.30;;;;;;;27.41;47.50;100966.72;10130207;28;20048;-75
2023/08/16 11:39:06;;;;;;;6.38;2.95;;;;;;;26.84;48.49;100959.13;10128548;29;20063;-76
2023/08/16 11:44:09;;;;;;;5.38;3.92;;;;;;;26.54;48.88;100949.69;10125198;29;20067;-75
2023/08/16 11:49:14;;;;;;;6.05;3.80;;;;;;;26.27;49.43;100960.75;10123525;29;20047;-74
2023/08/16 11:54:23;;;;;;;8.45;3.90;;;;;;;25.88;49.82;100958.84;10125033;28;20115;-74
2023/08/16 11:59:27;;;;;;;8.25;4.30;;;;;;;25.77;50.33;100963.09;10127912;28;20060;-75
2023/08/16 12:04:30;;;;;;;8.95;4.32;;;;;;;25.72;50.60;100965.63;10128315;29;20056;-75
2023/08/16 12:09:41;;;;;;;6.47;3.83;;;;;;;25.74;50.03;100947.84;10129456;29;20055;-76
2023/08/16 12:14:44;;;;;;;4.63;3.60;;;;;;;25.61;50.54;100962.41;10123788;29;20052;-75
2023/08/16 12:19:46;;;;;;;5.03;3.20;;;;;;;25.58;51.42;100962.81;10129158;29;20638;-76
2023/08/16 12:24:51;;;;;;;4.00;2.70;;;;;;;26.16;50.20;100953.09;10121753;28;20194;-75
2023/08/16 12:29:54;;;;;;;5.28;3.03;;;;;;;27.77;47.19;100941.19;10128587;29;20992;-74
2023/08/16 12:34:57;;;;;;;4.40;2.75;;;;;;;29.36;44.81;100928.31;10126369;29;20063;-75
2023/08/16 12:40:05;;;;;;;10.82;4.18;;;;;;;29.06;43.47;100922.81;10125345;29;20101;-75
2023/08/16 12:45:09;;;;;;;6.00;3.40;;;;;;;29.31;44.46;100917.13;10129134;29;20422;-76
2023/08/16 12:50:12;;;;;;;5.57;3.22;;;;;;;29.99;42.63;100915.78;10125773;28;20056;-72
2023/08/16 12:55:17;;;;;;;7.40;3.42;;;;;;;29.71;42.83;100923.97;10124114;29;20210;-76
2023/08/16 13:00:20;;;;;;;7.70;3.20;;;;;;;30.03;42.85;100905.06;10114719;29;20053;-76
2023/08/16 13:05:29;;;;;;;5.85;3.28;;;;;;;30.19;43.04;100898.81;10116979;29;20119;-76
2023/08/16 13:10:37;;;;;;;6.60;3.95;;;;;;;30.46;42.40;100896.38;10113956;29;20063;-75
2023/08/16 13:15:57;;;;;;;4.85;3.70;;;;;;;30.34;41.79;100900.28;10118079;28;20063;-75
2023/08/16 13:21:03;;;;;;;5.05;3.00;;;;;;;30.32;41.76;100880.28;10119607;28;20436;-76
2023/08/16 13:26:23;;;;;;;5.13;2.75;;;;;;;30.55;41.70;100876.59;10129371;29;20182;-76
2023/08/16 13:31:39;;;;;;;6.95;2.97;;;;;;;31.13;41.04;100876.38;10123889;29;20052;-76
2023/08/16 13:37:03;;;;;;;5.63;3.00;;;;;;;31.21;40.89;100877.94;10132595;29;20048;-75
2023/08/16 13:42:27;;;;;;;6.63;3.00;;;;;;;30.42;41.72;100875.78;10131804;29;20769;-76
2023/08/16 13:47:33;;;;;;;5.53;3.10;;;;;;;30.27;42.09;100878.22;10134588;28;20070;-75
2023/08/16 13:52:36;;;;;;;5.05;2.75;;;;;;;30.60;40.88;100862.84;10131255;29;20052;-75
2023/08/16 13:57:40;;;;;;;6.95;3.25;;;;;;;29.94;41.97;100860.28;10127039;28;20393;-75
2023/08/16 14:02:43;;;;;;;5.30;2.83;;;;;;;30.94;40.55;100849.09;10130510;28;20055;-75
2023/08/16 14:07:46;;;;;;;8.00;3.15;;;;;;;32.18;38.44;100854.50;10129137;29;20076;-74
2023/08/16 14:12:50;;;;;;;4.10;2.83;;;;;;;31.75;38.85;100849.69;10124622;28;20063;-75
2023/08/16 14:17:53;;;;;;;4.57;2.20;;;;;;;32.27;38.54;100848.50;10124835;29;20044;-76
2023/08/16 14:22:56;;;;;;;3.67;2.58;;;;;;;31.87;38.87;100847.66;10126458;29;20052;-75
2023/08/16 14:28:05;;;;;;;3.70;2.38;;;;;;;31.51;39.47;100846.22;10128243;28;20182;-76
2023/08/16 14:33:10;;;;;;;6.68;2.35;;;;;;;30.97;40.37;100835.59;10130927;28;20183;-76
2023/08/16 14:38:14;;;;;;;5.28;2.00;;;;;;;30.91;40.47;100839.38;10127285;28;20058;-76
2023/08/16 14:43:18;;;;;;;6.15;2.53;;;;;;;30.96;40.20;100841.38;10132262;28;20056;-75
2023/08/16 14:48:21;;;;;;;3.55;2.47;;;;;;;30.77;40.52;100843.50;10132600;29;20055;-75
2023/08/16 14:53:24;;;;;;;6.20;3.30;;;;;;;29.69;41.95;100846.69;10132711;28;20085;-75
2023/08/16 14:58:28;;;;;;;7.47;2.85;;;;;;;28.72;44.19;100846.94;10131394;29;20092;-75
2023/08/16 15:03:31;;;;;;;2.78;2.58;;;;;;;28.88;43.94;100854.56;10134716;28;20060;-75
2023/08/16 15:08:36;;;;;;;4.35;2.67;;;;;;;29.74;42.32;100851.53;10126798;29;20075;-74
2023/08/16 15:13:40;;;;;;;3.95;2.72;;;;;;;30.12;41.67;100851.00;10115312;29;20151;-74
2023/08/16 15:18:43;;;;;;;7.00;2.30;;;;;;;30.15;41.20;100838.63;10114137;29;20561;-74
2023/08/16 15:23:46;;;;;;;5.47;2.92;;;;;;;28.90;42.85;100844.09;10123661;29;20124;-75
2023/08/16 15:28:51;;;;;;;8.43;3.50;;;;;;;27.98;45.10;100851.63;10122777;29;20066;-75
2023/08/16 15:33:54;;;;;;;6.80;2.92;;;;;;;28.44;44.27;100850.22;10124310;28;20040;-74
2023/08/16 15:38:56;;;;;;;3.65;2.80;;;;;;;28.41;43.31;100845.16;10134264;29;20476;-75
2023/08/16 15:44:01;;;;;;;7.93;3.22;;;;;;;28.18;44.67;100841.19;10127192;29;20051;-75
2023/08/16 15:49:04;;;;;;;3.75;2.00;;;;;;;28.25;43.96;100841.97;10135272;29;20159;-76
2023/08/16 15:54:07;;;;;;;2.88;2.13;;;;;;;28.20;44.51;100836.28;10137076;29;20188;-76
2023/08/16 15:59:12;;;;;;;6.40;2.70;;;;;;;27.56;45.35;100838.44;10129848;28;20079;-76
2023/08/16 16:04:15;;;;;;;3.13;2.08;;;;;;;27.02;46.25;100844.56;10126704;29;20048;-77
2023/08/16 16:09:19;;;;;;;6.85;2.83;;;;;;;26.53;47.08;100841.41;10122738;29;20083;-78
2023/08/16 16:14:24;;;;;;;5.10;2.20;;;;;;;26.49;48.79;100837.38;10115812;29;20055;-76
2023/08/16 16:19:27;;;;;;;5.95;2.28;;;;;;;26.10;48.21;100843.88;10128359;29;20085;-76
2023/08/16 16:24:29;;;;;;;6.57;2.40;;;;;;;25.69;49.09;100842.25;10129795;28;20044;-76
2023/08/16 16:29:34;;;;;;;4.13;2.53;;;;;;;25.41;49.73;100837.78;10135597;28;20043;-76
2023/08/16 16:34:37;;;;;;;6.53;3.20;;;;;;;25.52;49.85;100834.41;10133039;29;20170;-76
2023/08/16 16:39:40;;;;;;;4.20;2.30;;;;;;;25.39;50.00;100834.41;10128633;29;20123;-76
2023/08/16 16:44:44;;;;;;;9.77;3.17;;;;;;;25.23;50.14;100830.16;10139431;29;20777;-76
2023/08/16 16:49:48;;;;;;;4.63;2.63;;;;;;;25.13;50.36;100810.50;10136058;28;20063;-76
2023/08/16 16:54:51;;;;;;;3.70;2.10;;;;;;;25.04;50.46;100792.53;10134061;29;20095;-78
2023/08/16 16:59:57;;;;;;;4.07;2.65;;;;;;;24.84;50.46;100786.97;10148084;29;20051;-77
2023/08/16 17:05:00;;;;;;;2.83;2.03;;;;;;;24.87;51.68;100792.88;10134492;29;20527;-76
2023/08/16 17:10:04;;;;;;;7.80;3.17;;;;;;;24.83;52.56;100808.13;10131931;29;21155;-77
2023/08/16 17:15:10;;;;;;;6.18;3.13;;;;;;;25.16;51.68;100799.94;10139044;29;20424;-75
2023/08/16 17:20:13;;;;;;;5.30;3.25;;;;;;;25.79;50.36;100795.91;10162925;29;20067;-76
2023/08/16 17:25:17;;;;;;;9.18;3.28;;;;;;;26.55;48.42;100805.34;10169841;29;20131;-76
2023/08/16 17:30:21;;;;;;;3.38;2.65;;;;;;;26.74;47.58;100798.88;10168497;29;20048;-76
2023/08/16 17:35:24;;;;;;;6.93;3.05;;;;;;;25.58;48.96;100806.03;10136509;29;20083;-76
2023/08/16 17:40:27;;;;;;;4.63;3.65;;;;;;;24.46;51.77;100810.31;10148934;29;20137;-75
2023/08/16 17:45:31;;;;;;;4.80;3.00;;;;;;;23.68;53.17;100819.78;10145692;28;20048;-76
2023/08/16 17:50:34;;;;;;;5.47;3.45;;;;;;;23.42;53.95;100818.53;10130837;28;21189;-76
2023/08/16 17:55:37;;;;;;;7.40;2.67;;;;;;;23.14;55.16;100821.25;10136313;28;20044;-77
2023/08/16 18:00:41;;;;;;;3.72;2.17;;;;;;;22.93;55.68;100822.09;10128531;29;20044;-76
2023/08/16 18:05:44;;;;;;;4.97;2.30;;;;;;;22.46;57.15;100826.16;10131107;29;20072;-77
2023/08/16 18:10:47;;;;;;;6.03;2.78;;;;;;;22.10;57.59;100837.88;10124374;29;20640;-76
2023/08/16 18:15:51;;;;;;;5.60;2.63;;;;;;;21.94;58.20;100843.53;10132212;28;20056;-75
2023/08/16 18:20:58;;;;;;;4.45;2.30;;;;;;;21.80;58.95;100848.84;10132439;29;20048;-76
2023/08/16 18:26:00;;;;;;;5.68;3.03;;;;;;;21.74;59.71;100849.53;10134667;29;20044;-76
2023/08/16 18:31:07;;;;;;;4.82;2.50;;;;;;;21.61;59.85;100846.59;10134550;29;20056;-76
2023/08/16 18:36:10;;;;;;;2.13;1.90;;;;;;;21.47;60.36;100847.41;10130685;29;20048;-77
2023/08/16 18:41:13;;;;;;;3.88;2.00;;;;;;;21.43;60.88;100861.44;10131962;28;20063;-76
2023/08/16 18:46:17;;;;;;;4.38;2.30;;;;;;;21.33;60.94;100851.81;10132383;28;20052;-76
2023/08/16 18:51:21;;;;;;;5.95;2.20;;;;;;;21.28;61.08;100859.69;10134596;29;20044;-76
2023/08/16 18:56:23;;;;;;;6.43;2.72;;;;;;;21.21;61.80;100851.41;10129885;28;20078;-76
2023/08/16 19:01:28;;;;;;;2.55;2.00;;;;;;;21.25;61.36;100874.56;10127937;28;20052;-75
2023/08/16 19:06:33;;;;;;;4.10;2.28;;;;;;;21.15;61.18;100865.78;10130823;28;20056;-77
2023/08/16 19:11:36;;;;;;;4.57;2.90;;;;;;;20.93;61.95;100865.56;10130649;28;20048;-75
2023/08/16 19:16:40;;;;;;;6.97;2.80;;;;;;;20.77;62.32;100855.59;10131059;29;20055;-76
2023/08/16 19:21:43;;;;;;;7.30;2.70;;;;;;;20.74;62.53;100857.84;10128624;28;20135;-76
2023/08/16 19:26:46;;;;;;;6.25;2.85;;;;;;;20.64;62.52;100843.56;10130610;28;20052;-76
2023/08/16 19:31:50;;;;;;;5.50;3.28;;;;;;;20.61;62.81;100833.00;10131575;28;21123;-76
2023/08/16 19:36:53;;;;;;;5.30;3.15;;;;;;;20.37;63.73;100818.47;10120590;28;20432;-75
2023/08/16 19:41:56;;;;;;;5.38;3.00;;;;;;;20.28;64.40;100817.63;10129297;29;20052;-75
2023/08/16 19:47:00;;;;;;;5.30;2.55;;;;;;;20.21;64.80;100823.94;10133596;29;20531;-76
2023/08/16 19:52:03;;;;;;;10.82;3.30;;;;;;;20.16;65.50;100835.41;10131319;28;20059;-75
2023/08/16 19:57:06;;;;;;;6.63;3.28;;;;;;;19.98;65.86;100832.91;10131462;28;20095;-74
2023/08/16 20:02:10;;;;;;;7.47;2.92;;;;;;;19.96;66.23;100837.69;10128252;28;20712;-75
2023/08/16 20:07:13;;;;;;;4.47;2.63;;;;;;;19.98;65.94;100851.16;10130970;28;20048;-75
2023/08/16 20:12:16;;;;;;;9.85;2.90;;;;;;;19.88;66.30;100854.06;10126531;29;20051;-76
2023/08/16 20:17:20;;;;;;;7.65;3.00;;;;;;;19.92;65.90;100851.84;10128468;29;20052;-76
2023/08/16 20:22:23;;;;;;;4.40;2.50;;;;;;;19.98;65.74;100865.63;10127631;29;20055;-76
2023/08/16 20:27:26;;;;;;;9.30;3.20;;;;;;;19.99;65.02;100867.31;10133679;28;20090;-76
2023/08/16 20:32:31;;;;;;;6.32;2.33;;;;;;;20.00;64.93;100870.91;10134032;28;20049;-76
2023/08/16 20:37:35;;;;;;;7.85;2.53;;;;;;;20.00;64.48;100871.75;10127973;29;20048;-76
2023/08/16 20:42:39;;;;;;;6.13;2.50;;;;;;;19.84;64.63;100867.19;10125416;29;20048;-76
2023/08/16 20:47:44;;;;;;;5.07;3.00;;;;;;;19.97;64.32;100863.94;10131267;29;20501;-76
2023/08/16 20:52:47;;;;;;;3.80;1.90;;;;;;;19.82;64.49;100866.50;10132756;29;20055;-76
2023/08/16 20:57:50;;;;;;;7.00;3.00;;;;;;;19.86;64.62;100881.50;10131036;28;20098;-76
2023/08/16 21:02:54;;;;;;;5.95;2.38;;;;;;;19.83;63.92;100862.78;10128281;28;20067;-75
2023/08/16 21:08:21;;;;;;;5.40;2.30;;;;;;;19.68;64.31;100846.25;10133116;29;21008;-76
2023/08/16 21:13:23;;;;;;;6.13;2.55;;;;;;;19.76;64.38;100837.22;10127106;29;20064;-76
2023/08/16 21:18:28;;;;;;;3.65;2.05;;;;;;;19.68;64.05;100831.78;10133087;29;20061;-76
2023/08/16 21:23:31;;;;;;;4.47;2.25;;;;;;;19.71;63.90;100830.59;10132651;28;20107;-75
2023/08/16 21:28:33;;;;;;;6.38;3.05;;;;;;;19.66;64.09;100814.75;10128387;28;20051;-75
2023/08/16 21:33:38;;;;;;;7.93;2.40;;;;;;;19.65;64.03;100815.78;10127524;28;20420;-75
2023/08/16 21:38:40;;;;;;;6.68;2.65;;;;;;;19.51;63.91;100809.16;10127321;29;20521;-75
2023/08/16 21:43:43;;;;;;;4.38;1.90;;;;;;;19.45;63.75;100807.97;10128000;29;20048;-75
2023/08/16 21:48:47;;;;;;;3.50;1.88;;;;;;;19.48;63.66;100811.38;10130911;29;20044;-75
2023/08/16 21:53:50;;;;;;;4.50;1.85;;;;;;;19.48;63.38;100803.19;10126059;28;21279;-75
2023/08/16 21:58:53;;;;;;;4.68;1.98;;;;;;;19.45;62.49;100793.50;10126799;28;20076;-75
2023/08/16 22:03:57;;;;;;;5.53;1.77;;;;;;;19.50;62.44;100782.94;10129199;29;20055;-74
2023/08/16 22:09:01;;;;;;;7.97;2.35;;;;;;;19.45;61.91;100793.50;10125490;29;20060;-74
2023/08/16 22:14:04;;;;;;;2.45;1.63;;;;;;;19.37;62.07;100798.97;10132205;29;21097;-75
2023/08/16 22:19:09;;;;;;;6.68;1.80;;;;;;;19.32;61.65;100806.78;10120761;28;20060;-75
2023/08/16 22:24:12;;;;;;;4.05;1.77;;;;;;;19.40;61.72;100814.94;10122292;29;20092;-75
2023/08/16 22:29:15;;;;;;;3.05;1.65;;;;;;;19.33;61.85;100819.38;10123207;29;20097;-75
2023/08/16 22:34:21;;;;;;;4.03;2.05;;;;;;;19.23;62.33;100806.78;10121039;29;20052;-75
2023/08/16 22:39:24;;;;;;;6.93;2.22;;;;;;;19.25;62.37;100803.88;10127170;29;21470;-75
2023/08/16 22:44:27;;;;;;;3.88;1.80;;;;;;;19.19;62.51;100794.53;10117882;29;20059;-75
2023/08/16 22:49:31;;;;;;;3.40;1.73;;;;;;;19.16;62.72;100781.25;10120567;28;20055;-75
2023/08/16 22:54:34;;;;;;;3.97;1.90;;;;;;;19.10;62.94;100770.22;10119207;28;20176;-75
2023/08/16 22:59:37;;;;;;;7.22;2.03;;;;;;;19.04;63.17;100779.91;10120123;29;20059;-74
2023/08/16 23:04:41;;;;;;;2.85;1.77;;;;;;;19.01;63.56;100789.28;10120631;29;21648;-75
2023/08/16 23:09:44;;;;;;;6.97;1.75;;;;;;;19.07;63.55;100789.59;10121281;29;20111;-75
2023/08/16 23:14:47;;;;;;;7.93;2.13;;;;;;;19.11;63.51;100775.47;10120478;28;20059;-75